Time;durP1;ratioP1;P1;durP2;ratioP2;P2;SDS_P1;SDS_P2;PMS_P1;PMS_P2;Temp;Humidity;BMP_temperature;BMP_pressure;BME280_temperature;BME280_humidity;BME280_pressure;Samples;Min_cycle;Max_cycle;Signal;HPM_P1;HPM_P2
2023/01/10 00:00:34;;;;;;;21.55;3.40;;;;;;;;;;4937944;28;95516;-68
2023/01/10 00:03:01;;;;;;;27.33;4.53;;;;;;;;;;4929718;28;92542;-68
2023/01/10 00:05:27;;;;;;;22.00;3.97;;;;;;;;;;4935744;28;93371;-68
2023/01/10 00:07:53;;;;;;;24.50;3.40;;;;;;;;;;4936093;28;93454;-68
2023/01/10 00:10:19;;;;;;;22.65;3.10;;;;;;;;;;4936776;28;94079;-68
2023/01/10 00:15:31;;;;;;;17.45;2.75;;;;;;;;;;4936710;28;92791;-67
2023/01/10 00:17:58;;;;;;;23.50;3.03;;;;;;;;;;4934388;28;92514;-68
2023/01/10 00:20:24;;;;;;;24.73;3.72;;;;;;;;;;4935573;28;93181;-68
2023/01/10 00:22:51;;;;;;;17.95;2.72;;;;;;;;;;4937567;28;96269;-68
2023/01/10 00:25:20;;;;;;;14.82;3.30;;;;;;;;;;4936652;28;95570;-67
2023/01/10 00:27:49;;;;;;;18.08;3.55;;;;;;;;;;4936540;28;93957;-67
2023/01/10 00:30:15;;;;;;;25.98;3.58;;;;;;;;;;4926865;28;92526;-68
2023/01/10 00:32:43;;;;;;;24.60;3.47;;;;;;;;;;4934286;28;93703;-67
2023/01/10 00:35:10;;;;;;;21.85;3.00;;;;;;;;;;4935493;28;93589;-68
2023/01/10 00:37:37;;;;;;;18.52;2.70;;;;;;;;;;4934979;28;92474;-68
2023/01/10 00:40:06;;;;;;;27.05;3.63;;;;;;;;;;4935614;28;93332;-68
2023/01/10 00:45:18;;;;;;;15.05;3.00;;;;;;;;;;4939057;28;92418;-67
2023/01/10 00:47:45;;;;;;;11.48;2.70;;;;;;;;;;4933014;28;95146;-68
2023/01/10 00:50:11;;;;;;;17.25;2.55;;;;;;;;;;4930125;28;92533;-68
2023/01/10 00:52:37;;;;;;;21.77;2.95;;;;;;;;;;4936337;28;93212;-68
2023/01/10 00:55:04;;;;;;;18.23;3.15;;;;;;;;;;4935554;28;93433;-68
2023/01/10 00:57:30;;;;;;;21.58;3.35;;;;;;;;;;4931101;28;92901;-67
2023/01/10 00:59:57;;;;;;;12.95;2.67;;;;;;;;;;4939548;28;93187;-68
2023/01/10 01:02:23;;;;;;;20.92;2.90;;;;;;;;;;4933730;28;93401;-68
2023/01/10 01:04:50;;;;;;;28.13;3.83;;;;;;;;;;4935067;28;91831;-69
2023/01/10 01:07:16;;;;;;;18.67;2.67;;;;;;;;;;4944684;28;92837;-69
2023/01/10 01:12:27;;;;;;;17.42;2.63;;;;;;;;;;4932948;28;94827;-68
2023/01/10 01:14:53;;;;;;;22.42;3.10;;;;;;;;;;4934572;28;93612;-68
2023/01/10 01:17:20;;;;;;;16.30;2.92;;;;;;;;;;4940440;28;92565;-68
2023/01/10 01:19:46;;;;;;;24.77;3.25;;;;;;;;;;4944510;28;93031;-68
2023/01/10 01:22:13;;;;;;;28.50;3.35;;;;;;;;;;4942521;28;93505;-68
2023/01/10 01:24:40;;;;;;;20.70;3.38;;;;;;;;;;4938458;28;92486;-68
2023/01/10 01:27:06;;;;;;;19.88;2.97;;;;;;;;;;4953688;28;93617;-68
2023/01/10 01:29:32;;;;;;;16.48;2.67;;;;;;;;;;4939933;28;92830;-68
2023/01/10 01:32:08;;;;;;;18.42;3.25;;;;;;;;;;4934267;28;94016;-68
2023/01/10 01:34:35;;;;;;;16.13;2.60;;;;;;;;;;4934967;28;93412;-68
2023/01/10 01:37:01;;;;;;;17.75;2.97;;;;;;;;;;4932855;28;94898;-68
2023/01/10 01:39:27;;;;;;;19.33;2.38;;;;;;;;;;4933818;28;95667;-68
2023/01/10 01:41:56;;;;;;;24.67;3.03;;;;;;;;;;4937796;28;93704;-68
2023/01/10 01:44:23;;;;;;;18.85;3.30;;;;;;;;;;4935064;28;92415;-68
2023/01/10 01:46:59;;;;;;;19.45;2.92;;;;;;;;;;4929756;28;93429;-68
2023/01/10 01:49:25;;;;;;;18.05;2.25;;;;;;;;;;4933020;28;93596;-68
2023/01/10 01:51:55;;;;;;;21.02;3.00;;;;;;;;;;4938689;28;92562;-68
2023/01/10 01:54:22;;;;;;;17.80;2.63;;;;;;;;;;4935295;28;93089;-67
2023/01/10 01:56:58;;;;;;;28.40;4.22;;;;;;;;;;4919446;28;92480;-67
2023/01/10 01:59:26;;;;;;;15.52;3.60;;;;;;;;;;4933316;28;93187;-67
2023/01/10 02:01:56;;;;;;;24.70;3.30;;;;;;;;;;4930656;28;96007;-68
2023/01/10 02:04:25;;;;;;;19.70;2.27;;;;;;;;;;4933493;28;92505;-67
2023/01/10 02:06:54;;;;;;;20.95;3.08;;;;;;;;;;4934111;28;93820;-67
2023/01/10 02:09:26;;;;;;;25.05;3.30;;;;;;;;;;4935675;28;93038;-67
2023/01/10 02:11:53;;;;;;;21.77;2.92;;;;;;;;;;4937397;28;92495;-68
2023/01/10 02:14:20;;;;;;;27.77;4.22;;;;;;;;;;4944763;28;93539;-67
2023/01/10 02:16:47;;;;;;;26.73;3.63;;;;;;;;;;4939741;28;92465;-68
2023/01/10 02:19:20;;;;;;;22.17;2.83;;;;;;;;;;4937616;28;93133;-67
2023/01/10 02:22:11;;;;;;;19.60;3.00;;;;;;;;;;4937129;28;93662;-68
2023/01/10 02:24:38;;;;;;;27.50;3.45;;;;;;;;;;4928398;28;92729;-67
2023/01/10 02:27:10;;;;;;;23.67;3.72;;;;;;;;;;4944803;28;94909;-68
2023/01/10 02:29:48;;;;;;;25.05;3.40;;;;;;;;;;4952606;28;94666;-67
2023/01/10 02:32:25;;;;;;;24.75;3.25;;;;;;;;;;4935976;28;92629;-67
2023/01/10 02:35:23;;;;;;;27.95;3.42;;;;;;;;;;4925780;28;93353;-67
2023/01/10 02:37:52;;;;;;;21.65;3.78;;;;;;;;;;4932523;28;92537;-68
2023/01/10 02:40:25;;;;;;;15.77;2.78;;;;;;;;;;4933793;28;93264;-68
2023/01/10 02:42:57;;;;;;;30.23;3.60;;;;;;;;;;4936126;28;93814;-68
2023/01/10 02:45:28;;;;;;;25.33;2.92;;;;;;;;;;4937634;28;91888;-68
2023/01/10 02:47:55;;;;;;;24.98;3.08;;;;;;;;;;4937499;28;92654;-68
2023/01/10 02:50:24;;;;;;;27.17;3.47;;;;;;;;;;4935821;28;93429;-67
2023/01/10 02:52:50;;;;;;;19.35;3.00;;;;;;;;;;4936375;28;94894;-68
2023/01/10 02:55:17;;;;;;;32.33;4.53;;;;;;;;;;4936420;28;98307;-67
2023/01/10 02:57:51;;;;;;;19.80;2.75;;;;;;;;;;4939080;28;93497;-68
2023/01/10 03:00:26;;;;;;;27.15;3.70;;;;;;;;;;4918318;28;93400;-68
2023/01/10 03:03:13;;;;;;;29.10;4.00;;;;;;;;;;4936539;28;93803;-68
2023/01/10 03:05:46;;;;;;;18.23;2.60;;;;;;;;;;4936521;28;92510;-68
2023/01/10 03:08:32;;;;;;;33.15;3.70;;;;;;;;;;4935317;28;93108;-68
2023/01/10 03:11:03;;;;;;;28.17;4.05;;;;;;;;;;4937131;28;92740;-67
2023/01/10 03:13:44;;;;;;;19.20;3.65;;;;;;;;;;4939912;28;92600;-68
2023/01/10 03:16:14;;;;;;;32.20;3.88;;;;;;;;;;4947696;28;92583;-68
2023/01/10 03:18:54;;;;;;;22.55;3.10;;;;;;;;;;4949823;28;96917;-68
2023/01/10 03:21:22;;;;;;;30.30;3.67;;;;;;;;;;4947106;28;93008;-68
2023/01/10 03:23:49;;;;;;;30.70;4.43;;;;;;;;;;4940901;28;93740;-67
2023/01/10 03:26:19;;;;;;;26.55;3.42;;;;;;;;;;4946975;28;93041;-68
2023/01/10 03:28:50;;;;;;;26.33;3.20;;;;;;;;;;4936120;28;93804;-68
2023/01/10 03:31:21;;;;;;;27.20;3.67;;;;;;;;;;4940310;28;93852;-68
2023/01/10 03:33:47;;;;;;;31.45;3.55;;;;;;;;;;4937928;28;93531;-67
2023/01/10 03:36:30;;;;;;;21.23;3.25;;;;;;;;;;4934628;28;93342;-68
2023/01/10 03:39:20;;;;;;;20.17;3.28;;;;;;;;;;4937418;28;93630;-68
2023/01/10 03:41:49;;;;;;;24.73;3.63;;;;;;;;;;4862573;28;93435;-67
2023/01/10 03:47:23;;;;;;;25.17;3.60;;;;;;;;;;4856318;28;94184;-67
2023/01/10 03:49:53;;;;;;;20.15;3.20;;;;;;;;;;4857407;29;93084;-68
2023/01/10 03:52:20;;;;;;;21.35;3.88;;;;;;;;;;4857531;28;93366;-67
2023/01/10 03:54:46;;;;;;;22.58;3.22;;;;;;;;;;4857791;29;92701;-68
2023/01/10 03:57:17;;;;;;;22.38;3.10;;;;;;;;;;4857829;28;93417;-67
2023/01/10 03:59:44;;;;;;;25.42;2.80;;;;;;;;;;4857404;28;93568;-67
2023/01/10 04:02:10;;;;;;;20.85;3.22;;;;;;;;;;4842125;29;92354;-67
2023/01/10 04:04:36;;;;;;;26.08;4.00;;;;;;;;;;4857260;28;92695;-67
2023/01/10 04:07:03;;;;;;;16.80;3.83;;;;;;;;;;4859821;28;93649;-68
2023/01/10 04:09:29;;;;;;;17.33;3.28;;;;;;;;;;4856600;29;95035;-67
2023/01/10 04:11:55;;;;;;;24.70;3.33;;;;;;;;;;4857528;29;94513;-68
2023/01/10 04:14:22;;;;;;;20.15;3.30;;;;;;;;;;4861083;28;93062;-68
2023/01/10 04:16:48;;;;;;;31.17;4.03;;;;;;;;;;4863251;28;93472;-68
2023/01/10 04:19:14;;;;;;;25.40;3.38;;;;;;;;;;4922994;28;93485;-68
2023/01/10 04:21:40;;;;;;;26.52;3.97;;;;;;;;;;4935398;28;93663;-68
2023/01/10 04:24:07;;;;;;;27.38;3.78;;;;;;;;;;4935355;28;92491;-67
2023/01/10 04:26:33;;;;;;;26.98;3.88;;;;;;;;;;4941229;28;94223;-68
2023/01/10 04:28:59;;;;;;;33.53;4.00;;;;;;;;;;4953892;28;92652;-67
2023/01/10 04:31:26;;;;;;;23.10;3.70;;;;;;;;;;4942937;28;93440;-67
2023/01/10 04:33:52;;;;;;;13.68;2.88;;;;;;;;;;4939388;28;94883;-67
2023/01/10 04:36:18;;;;;;;23.33;3.13;;;;;;;;;;4936076;28;95963;-67
2023/01/10 04:38:45;;;;;;;23.23;3.40;;;;;;;;;;4939211;28;93502;-67
2023/01/10 04:41:11;;;;;;;20.63;3.05;;;;;;;;;;4964235;28;92494;-68
2023/01/10 04:43:37;;;;;;;26.15;4.57;;;;;;;;;;4931407;28;93969;-67
2023/01/10 04:46:04;;;;;;;21.05;4.05;;;;;;;;;;4934145;28;94361;-67
2023/01/10 04:48:30;;;;;;;26.08;3.65;;;;;;;;;;4938721;28;93607;-67
2023/01/10 04:50:56;;;;;;;24.50;4.00;;;;;;;;;;4940932;28;92733;-67
2023/01/10 04:53:23;;;;;;;27.85;3.35;;;;;;;;;;4939153;28;92398;-67
2023/01/10 04:55:49;;;;;;;29.25;3.47;;;;;;;;;;4942882;28;93480;-67
2023/01/10 04:58:15;;;;;;;23.55;4.28;;;;;;;;;;4935795;28;95935;-67
2023/01/10 05:00:41;;;;;;;38.45;3.97;;;;;;;;;;4935583;28;92935;-68
2023/01/10 05:03:08;;;;;;;13.35;3.33;;;;;;;;;;4946728;28;93422;-67
2023/01/10 05:05:34;;;;;;;30.30;4.88;;;;;;;;;;4942743;28;94687;-67
2023/01/10 05:08:01;;;;;;;38.65;4.85;;;;;;;;;;4937044;28;92513;-67
2023/01/10 05:10:27;;;;;;;34.92;4.13;;;;;;;;;;4943811;28;93269;-67
2023/01/10 05:12:53;;;;;;;22.65;3.78;;;;;;;;;;4934138;28;92584;-67
2023/01/10 05:15:21;;;;;;;26.60;3.90;;;;;;;;;;4935548;28;93788;-67
2023/01/10 05:17:50;;;;;;;24.52;4.10;;;;;;;;;;4937877;28;93808;-67
2023/01/10 05:20:16;;;;;;;30.48;4.10;;;;;;;;;;4934603;28;92476;-67
2023/01/10 05:22:42;;;;;;;37.75;5.03;;;;;;;;;;4932833;28;94945;-67
2023/01/10 05:25:08;;;;;;;32.30;4.68;;;;;;;;;;4949583;28;93376;-67
2023/01/10 05:27:35;;;;;;;28.67;4.43;;;;;;;;;;4941481;28;93647;-68
2023/01/10 05:30:01;;;;;;;29.98;4.28;;;;;;;;;;4934620;28;93212;-68
2023/01/10 05:32:28;;;;;;;21.70;3.47;;;;;;;;;;4937920;28;92489;-67
2023/01/10 05:34:54;;;;;;;27.77;3.65;;;;;;;;;;4936650;28;93565;-68
2023/01/10 05:37:21;;;;;;;31.27;4.65;;;;;;;;;;4936916;28;93960;-68
2023/01/10 05:39:47;;;;;;;29.70;5.13;;;;;;;;;;4940839;28;91817;-67
2023/01/10 05:42:13;;;;;;;33.22;4.13;;;;;;;;;;4935019;28;94640;-68
2023/01/10 05:44:40;;;;;;;27.92;4.07;;;;;;;;;;4934054;28;93454;-67
2023/01/10 05:47:06;;;;;;;39.17;4.50;;;;;;;;;;4931797;28;94934;-66
2023/01/10 05:49:32;;;;;;;27.30;4.07;;;;;;;;;;4933995;28;95562;-67
2023/01/10 05:51:59;;;;;;;31.02;4.13;;;;;;;;;;4934057;28;93771;-67
2023/01/10 05:54:25;;;;;;;31.52;4.97;;;;;;;;;;4937309;28;92954;-67
2023/01/10 05:56:52;;;;;;;27.38;4.68;;;;;;;;;;4935614;28;94437;-67
2023/01/10 05:59:18;;;;;;;31.52;4.78;;;;;;;;;;4932844;28;92500;-67
2023/01/10 06:01:53;;;;;;;25.23;4.18;;;;;;;;;;4933320;28;93400;-67
2023/01/10 06:04:20;;;;;;;33.72;5.63;;;;;;;;;;4934693;28;93226;-67
2023/01/10 06:06:46;;;;;;;20.88;3.95;;;;;;;;;;4933055;28;92469;-67
2023/01/10 06:09:12;;;;;;;36.58;5.32;;;;;;;;;;4942596;28;94632;-67
2023/01/10 06:11:38;;;;;;;29.80;6.15;;;;;;;;;;4942817;28;96066;-68
2023/01/10 06:14:06;;;;;;;39.33;5.88;;;;;;;;;;4953253;28;92432;-68
2023/01/10 06:16:32;;;;;;;22.17;4.75;;;;;;;;;;4941307;28;93331;-67
2023/01/10 06:18:59;;;;;;;30.02;4.70;;;;;;;;;;4949760;28;92757;-68
2023/01/10 06:21:25;;;;;;;29.75;4.43;;;;;;;;;;4958228;28;94365;-66
2023/01/10 06:23:51;;;;;;;29.65;4.68;;;;;;;;;;4942793;28;93471;-66
2023/01/10 06:26:18;;;;;;;25.83;4.45;;;;;;;;;;4950400;28;92569;-67
2023/01/10 06:28:44;;;;;;;30.88;4.50;;;;;;;;;;4944779;28;91896;-67
2023/01/10 06:31:10;;;;;;;42.65;5.55;;;;;;;;;;4946333;28;94446;-67
2023/01/10 06:33:37;;;;;;;27.13;4.63;;;;;;;;;;4947891;28;92524;-67
2023/01/10 06:36:04;;;;;;;30.42;4.20;;;;;;;;;;4947767;28;94905;-67
2023/01/10 06:38:30;;;;;;;34.67;5.13;;;;;;;;;;4942691;28;92806;-68
2023/01/10 06:40:56;;;;;;;25.63;4.05;;;;;;;;;;4946026;28;93531;-67
2023/01/10 06:43:23;;;;;;;28.00;4.75;;;;;;;;;;4950221;28;93473;-67
2023/01/10 06:45:51;;;;;;;27.85;5.57;;;;;;;;;;4944588;28;92466;-67
2023/01/10 06:48:17;;;;;;;34.63;5.30;;;;;;;;;;4954399;28;93251;-67
2023/01/10 06:50:43;;;;;;;37.85;5.10;;;;;;;;;;4946757;28;93284;-67
2023/01/10 06:53:10;;;;;;;33.42;5.22;;;;;;;;;;4941646;28;91837;-67
2023/01/10 06:55:36;;;;;;;30.13;4.75;;;;;;;;;;4949139;28;93418;-67
2023/01/10 06:58:03;;;;;;;29.23;4.90;;;;;;;;;;4941154;28;93467;-67
2023/01/10 07:00:30;;;;;;;29.33;4.90;;;;;;;;;;4936250;28;94864;-68
2023/01/10 07:02:57;;;;;;;39.15;5.18;;;;;;;;;;4941640;28;93713;-67
2023/01/10 07:05:23;;;;;;;31.88;5.03;;;;;;;;;;4939117;28;92474;-67
2023/01/10 07:07:49;;;;;;;33.35;4.50;;;;;;;;;;4937543;28;93227;-67
2023/01/10 07:10:16;;;;;;;46.17;6.07;;;;;;;;;;4949424;28;94114;-67
2023/01/10 07:12:42;;;;;;;31.67;5.03;;;;;;;;;;4937459;28;93920;-67
2023/01/10 07:15:09;;;;;;;33.83;5.15;;;;;;;;;;4936547;28;93457;-67
2023/01/10 07:17:36;;;;;;;36.70;4.72;;;;;;;;;;4961524;28;94173;-68
2023/01/10 07:20:02;;;;;;;29.10;5.07;;;;;;;;;;4957454;28;92508;-68
2023/01/10 07:22:28;;;;;;;37.55;5.13;;;;;;;;;;4948880;28;93480;-68
2023/01/10 07:24:55;;;;;;;30.98;4.32;;;;;;;;;;4934736;28;95855;-68
2023/01/10 07:27:21;;;;;;;30.65;5.05;;;;;;;;;;4935947;28;95616;-68
2023/01/10 07:29:47;;;;;;;45.45;6.38;;;;;;;;;;4949412;28;93727;-68
2023/01/10 07:32:14;;;;;;;38.53;6.00;;;;;;;;;;4938744;28;92524;-68
2023/01/10 07:34:40;;;;;;;47.35;5.80;;;;;;;;;;4938808;28;93532;-68
2023/01/10 07:37:06;;;;;;;32.75;5.65;;;;;;;;;;4933218;28;93568;-68
2023/01/10 07:39:33;;;;;;;33.38;6.43;;;;;;;;;;4945738;28;93841;-68
2023/01/10 07:42:00;;;;;;;34.90;5.88;;;;;;;;;;4937267;28;93191;-68
2023/01/10 07:44:26;;;;;;;47.45;7.18;;;;;;;;;;4937480;28;92461;-68
2023/01/10 07:46:52;;;;;;;40.65;6.80;;;;;;;;;;4944112;28;93700;-68
2023/01/10 07:49:19;;;;;;;39.33;6.57;;;;;;;;;;4933034;28;95946;-68
2023/01/10 07:51:45;;;;;;;35.10;5.80;;;;;;;;;;4936579;28;92926;-69
2023/01/10 07:54:11;;;;;;;40.38;6.15;;;;;;;;;;4937849;28;93857;-68
2023/01/10 07:56:40;;;;;;;40.50;7.20;;;;;;;;;;4935591;28;93429;-68
2023/01/10 07:59:06;;;;;;;40.53;6.57;;;;;;;;;;4937187;28;92379;-68
2023/01/10 08:01:32;;;;;;;40.90;5.35;;;;;;;;;;4936990;28;93123;-68
2023/01/10 08:03:59;;;;;;;37.58;5.68;;;;;;;;;;4938207;28;93732;-68
2023/01/10 08:06:25;;;;;;;38.03;6.05;;;;;;;;;;4936920;28;93397;-68
2023/01/10 08:08:51;;;;;;;37.00;7.10;;;;;;;;;;4936798;28;92733;-68
2023/01/10 08:11:18;;;;;;;37.00;6.65;;;;;;;;;;4937223;28;92448;-68
2023/01/10 08:13:44;;;;;;;49.30;7.07;;;;;;;;;;4934926;28;94779;-68
2023/01/10 08:16:10;;;;;;;31.73;5.57;;;;;;;;;;4948859;28;93888;-68
2023/01/10 08:18:41;;;;;;;37.63;5.70;;;;;;;;;;4955599;28;92724;-68
2023/01/10 08:21:08;;;;;;;37.88;6.03;;;;;;;;;;4955048;28;93283;-68
2023/01/10 08:23:34;;;;;;;32.97;5.82;;;;;;;;;;4952695;28;93499;-68
2023/01/10 08:26:01;;;;;;;29.80;5.30;;;;;;;;;;4940966;28;92425;-68
2023/01/10 08:28:27;;;;;;;40.20;5.95;;;;;;;;;;4942378;28;93834;-68
2023/01/10 08:30:54;;;;;;;33.97;5.38;;;;;;;;;;4955371;28;92298;-68
2023/01/10 08:33:22;;;;;;;35.22;5.43;;;;;;;;;;4955019;28;93000;-68
2023/01/10 08:35:49;;;;;;;34.17;6.05;;;;;;;;;;4943002;28;93248;-68
2023/01/10 08:38:15;;;;;;;31.80;5.40;;;;;;;;;;4952348;28;94897;-68
2023/01/10 08:40:41;;;;;;;34.67;5.50;;;;;;;;;;4936152;28;95564;-68
2023/01/10 08:43:11;;;;;;;40.25;6.65;;;;;;;;;;4941941;28;96451;-68
2023/01/10 08:45:37;;;;;;;30.40;5.80;;;;;;;;;;4950314;28;92766;-68
2023/01/10 08:48:04;;;;;;;43.00;5.60;;;;;;;;;;4954575;28;93950;-68
2023/01/10 08:50:31;;;;;;;32.53;5.95;;;;;;;;;;4943347;28;92717;-68
2023/01/10 08:52:58;;;;;;;32.72;6.15;;;;;;;;;;4923448;28;93688;-68
2023/01/10 08:55:24;;;;;;;28.02;5.60;;;;;;;;;;4935504;28;91718;-68
2023/01/10 08:57:51;;;;;;;30.75;5.72;;;;;;;;;;4938437;28;92502;-68
2023/01/10 09:00:17;;;;;;;31.23;5.68;;;;;;;;;;4939594;28;93456;-68
2023/01/10 09:02:44;;;;;;;35.83;5.13;;;;;;;;;;4940027;28;95925;-68
2023/01/10 09:05:10;;;;;;;40.03;6.07;;;;;;;;;;4947341;28;93649;-68
2023/01/10 09:07:51;;;;;;;;;;;;;;;;;;4956342;28;93169;-68
2023/01/10 09:10:17;;;;;;;46.88;6.63;;;;;;;;;;4956293;28;118321;-68
2023/01/10 09:12:55;;;;;;;42.83;5.72;;;;;;;;;;4951140;28;93162;-68
2023/01/10 09:15:23;;;;;;;36.70;6.10;;;;;;;;;;4937258;28;93178;-68
2023/01/10 09:17:52;;;;;;;36.15;5.40;;;;;;;;;;4941517;28;92487;-68
2023/01/10 09:20:18;;;;;;;26.90;5.18;;;;;;;;;;4936571;28;93454;-68
2023/01/10 09:22:44;;;;;;;43.08;5.40;;;;;;;;;;4931978;28;93452;-67
2023/01/10 09:25:11;;;;;;;39.95;5.40;;;;;;;;;;4935304;28;92534;-68
2023/01/10 09:27:38;;;;;;;40.42;5.82;;;;;;;;;;4937268;28;95212;-68
2023/01/10 09:30:05;;;;;;;32.50;5.30;;;;;;;;;;4952921;28;93614;-67
2023/01/10 09:32:31;;;;;;;39.17;7.05;;;;;;;;;;4942939;28;94205;-68
2023/01/10 09:34:57;;;;;;;42.55;5.57;;;;;;;;;;4935483;28;93782;-67
2023/01/10 09:37:24;;;;;;;42.00;6.30;;;;;;;;;;4934964;28;92571;-68
2023/01/10 09:39:51;;;;;;;34.53;5.38;;;;;;;;;;4931923;28;93252;-68
2023/01/10 09:42:27;;;;;;;32.40;5.53;;;;;;;;;;4938557;28;93628;-67
2023/01/10 09:44:59;;;;;;;37.25;5.25;;;;;;;;;;4932105;28;92032;-68
2023/01/10 09:47:40;;;;;;;35.97;5.85;;;;;;;;;;4932310;28;92795;-68
2023/01/10 09:50:14;;;;;;;35.53;5.93;;;;;;;;;;4929807;28;92789;-67
2023/01/10 09:52:43;;;;;;;43.55;5.95;;;;;;;;;;4934768;28;95036;-67
2023/01/10 09:55:29;;;;;;;29.23;4.78;;;;;;;;;;4933398;28;94027;-67
2023/01/10 09:57:58;;;;;;;27.00;5.35;;;;;;;;;;4935236;28;92504;-67
2023/01/10 10:00:34;;;;;;;38.47;5.70;;;;;;;;;;4935850;28;96466;-67
2023/01/10 10:03:01;;;;;;;34.42;5.35;;;;;;;;;;4932835;28;93428;-67
2023/01/10 10:05:28;;;;;;;39.15;6.05;;;;;;;;;;4934764;28;92482;-67
2023/01/10 10:07:59;;;;;;;45.50;6.57;;;;;;;;;;4935290;28;93405;-67
2023/01/10 10:10:27;;;;;;;35.83;5.80;;;;;;;;;;4935485;28;92723;-67
2023/01/10 10:12:53;;;;;;;34.50;5.45;;;;;;;;;;4933946;28;92637;-67
2023/01/10 10:15:20;;;;;;;32.35;5.78;;;;;;;;;;4944638;28;93796;-66
2023/01/10 10:18:01;;;;;;;50.33;5.97;;;;;;;;;;4947236;28;95113;-67
2023/01/10 10:20:29;;;;;;;27.05;4.30;;;;;;;;;;4945867;28;95968;-67
2023/01/10 10:22:55;;;;;;;34.58;5.50;;;;;;;;;;4949917;28;93968;-66
2023/01/10 10:25:45;;;;;;;33.15;5.20;;;;;;;;;;4921977;28;92751;-67
2023/01/10 10:28:20;;;;;;;30.98;5.60;;;;;;;;;;4856943;28;93428;-66
2023/01/10 10:30:52;;;;;;;26.92;5.72;;;;;;;;;;4865844;28;96782;-67
2023/01/10 10:33:21;;;;;;;24.63;4.55;;;;;;;;;;4866878;28;92617;-66
2023/01/10 10:36:02;;;;;;;23.65;4.35;;;;;;;;;;4861358;28;93653;-67
2023/01/10 10:38:31;;;;;;;17.25;3.85;;;;;;;;;;4856016;29;92570;-66
2023/01/10 10:40:58;;;;;;;39.75;5.43;;;;;;;;;;4855684;28;93157;-67
2023/01/10 10:43:31;;;;;;;29.15;5.13;;;;;;;;;;4861293;28;95796;-67
2023/01/10 10:46:07;;;;;;;24.27;4.82;;;;;;;;;;4855882;28;92517;-67
2023/01/10 10:48:38;;;;;;;34.47;5.50;;;;;;;;;;4868536;28;93803;-67
2023/01/10 10:51:04;;;;;;;27.20;4.20;;;;;;;;;;4840154;29;93444;-66
2023/01/10 10:53:32;;;;;;;36.95;4.95;;;;;;;;;;4856130;28;92690;-66
2023/01/10 10:55:59;;;;;;;39.05;5.65;;;;;;;;;;4846398;29;93973;-67
2023/01/10 10:58:25;;;;;;;35.20;5.30;;;;;;;;;;4860596;28;93661;-67
2023/01/10 11:00:51;;;;;;;33.65;4.63;;;;;;;;;;4869050;28;93179;-66
2023/01/10 11:03:24;;;;;;;32.50;5.30;;;;;;;;;;4874214;28;93753;-67
2023/01/10 11:05:50;;;;;;;27.95;4.70;;;;;;;;;;4919748;28;92423;-66
2023/01/10 11:08:18;;;;;;;41.50;5.63;;;;;;;;;;4935550;28;95065;-67
2023/01/10 11:10:47;;;;;;;33.10;4.90;;;;;;;;;;4939918;28;93645;-66
2023/01/10 11:13:18;;;;;;;33.10;4.40;;;;;;;;;;4946841;28;92575;-66
2023/01/10 11:15:46;;;;;;;31.35;4.00;;;;;;;;;;4937196;28;94260;-66
2023/01/10 11:18:14;;;;;;;36.65;6.60;;;;;;;;;;4948345;28;93799;-67
2023/01/10 11:20:47;;;;;;;30.90;4.22;;;;;;;;;;4956783;28;92570;-67
2023/01/10 11:23:22;;;;;;;33.72;4.68;;;;;;;;;;4935441;28;93407;-69
2023/01/10 11:25:49;;;;;;;30.50;5.15;;;;;;;;;;4927375;28;91731;-70
2023/01/10 11:28:17;;;;;;;33.42;5.07;;;;;;;;;;4937462;28;92691;-69
2023/01/10 11:30:46;;;;;;;24.17;5.45;;;;;;;;;;4932847;28;93455;-67
2023/01/10 11:33:24;;;;;;;36.17;5.25;;;;;;;;;;4936121;28;95330;-67
2023/01/10 11:35:59;;;;;;;33.45;5.78;;;;;;;;;;4944633;28;95593;-67
2023/01/10 11:38:28;;;;;;;42.50;5.40;;;;;;;;;;4946336;28;93459;-67
2023/01/10 11:41:03;;;;;;;28.80;4.43;;;;;;;;;;4943950;28;92513;-67
2023/01/10 11:43:32;;;;;;;32.25;4.43;;;;;;;;;;4940271;28;93417;-67
2023/01/10 11:46:15;;;;;;;27.17;4.50;;;;;;;;;;4934386;28;92815;-67
2023/01/10 11:48:43;;;;;;;41.33;5.18;;;;;;;;;;4936226;28;93153;-67
2023/01/10 11:51:38;;;;;;;29.88;4.95;;;;;;;;;;4917772;28;92227;-67
2023/01/10 11:54:06;;;;;;;29.05;4.47;;;;;;;;;;4917889;28;92447;-67
2023/01/10 11:56:33;;;;;;;27.10;4.40;;;;;;;;;;4927025;28;93183;-67
2023/01/10 11:59:08;;;;;;;31.50;5.07;;;;;;;;;;4934068;28;96280;-69
2023/01/10 12:01:38;;;;;;;23.85;4.80;;;;;;;;;;4937054;28;92454;-67
2023/01/10 12:04:04;;;;;;;27.10;4.50;;;;;;;;;;4936663;28;93268;-67
2023/01/10 12:06:31;;;;;;;17.95;3.88;;;;;;;;;;4950479;28;93395;-66
2023/01/10 12:08:58;;;;;;;27.25;4.53;;;;;;;;;;4951947;28;94757;-67
2023/01/10 12:11:26;;;;;;;28.92;4.47;;;;;;;;;;4934486;28;93841;-66
2023/01/10 12:13:54;;;;;;;36.25;4.45;;;;;;;;;;4938135;28;92443;-69
2023/01/10 12:16:22;;;;;;;27.90;4.68;;;;;;;;;;4944620;28;93468;-67
2023/01/10 12:18:50;;;;;;;26.90;4.18;;;;;;;;;;4936013;28;93619;-67
2023/01/10 12:21:18;;;;;;;30.50;4.50;;;;;;;;;;4937192;28;92424;-67
2023/01/10 12:23:46;;;;;;;36.03;4.68;;;;;;;;;;4935181;28;94781;-67
2023/01/10 12:26:13;;;;;;;28.52;3.90;;;;;;;;;;4941032;28;93450;-66
2023/01/10 12:28:41;;;;;;;25.27;4.35;;;;;;;;;;4955363;28;92466;-67
2023/01/10 12:31:11;;;;;;;32.28;4.80;;;;;;;;;;4956217;28;93471;-67
2023/01/10 12:33:45;;;;;;;28.60;3.60;;;;;;;;;;4955287;28;92528;-67
2023/01/10 12:36:34;;;;;;;32.85;4.68;;;;;;;;;;4945134;28;93212;-67
2023/01/10 12:39:12;;;;;;;25.65;4.10;;;;;;;;;;4934182;28;93421;-67
2023/01/10 12:44:35;;;;;;;29.23;4.82;;;;;;;;;;4942758;28;92970;-65
2023/01/10 12:47:08;;;;;;;25.20;4.72;;;;;;;;;;4950887;28;93912;-66
2023/01/10 12:49:41;;;;;;;26.23;5.22;;;;;;;;;;4952497;28;94832;-66
2023/01/10 12:52:11;;;;;;;25.50;3.65;;;;;;;;;;4934556;28;93472;-66
2023/01/10 12:54:37;;;;;;;31.80;4.57;;;;;;;;;;4936141;28;92445;-66
2023/01/10 12:57:15;;;;;;;22.92;4.20;;;;;;;;;;4946722;28;93359;-66
2023/01/10 12:59:43;;;;;;;32.75;4.25;;;;;;;;;;4933146;28;94038;-68
2023/01/10 13:02:14;;;;;;;26.00;4.50;;;;;;;;;;4935675;28;92443;-67
2023/01/10 13:04:42;;;;;;;24.33;4.03;;;;;;;;;;4934703;28;93874;-69
2023/01/10 13:07:12;;;;;;;30.92;4.85;;;;;;;;;;4937192;28;92917;-67
2023/01/10 13:09:40;;;;;;;29.00;5.63;;;;;;;;;;4949203;28;92911;-67
2023/01/10 13:12:15;;;;;;;24.05;3.70;;;;;;;;;;4958467;28;93034;-67
2023/01/10 13:14:48;;;;;;;33.65;4.95;;;;;;;;;;4943549;28;94898;-67
2023/01/10 13:17:15;;;;;;;30.92;4.38;;;;;;;;;;4935426;28;95424;-67
2023/01/10 13:19:41;;;;;;;26.70;4.78;;;;;;;;;;4945551;28;93346;-67
2023/01/10 13:22:19;;;;;;;29.00;4.55;;;;;;;;;;4955242;28;92475;-67
2023/01/10 13:24:56;;;;;;;32.40;4.45;;;;;;;;;;4940640;28;93591;-67
2023/01/10 13:27:22;;;;;;;23.83;3.88;;;;;;;;;;4933359;28;93442;-67
2023/01/10 13:29:48;;;;;;;24.23;4.72;;;;;;;;;;4934214;28;93419;-66
2023/01/10 13:32:20;;;;;;;27.80;4.03;;;;;;;;;;4934824;28;93443;-66
2023/01/10 13:34:47;;;;;;;24.90;3.90;;;;;;;;;;4937371;28;94652;-65
2023/01/10 13:37:21;;;;;;;33.03;5.10;;;;;;;;;;4935462;28;93371;-66
2023/01/10 13:39:51;;;;;;;24.02;3.92;;;;;;;;;;4940920;28;96236;-66
2023/01/10 13:45:02;;;;;;;28.95;3.85;;;;;;;;;;4948159;28;123323;-66
2023/01/10 13:47:55;;;;;;;34.60;6.30;;;;;;;;;;4937559;28;94663;-66
2023/01/10 13:50:22;;;;;;;25.33;4.15;;;;;;;;;;4933211;28;92580;-67
2023/01/10 13:53:14;;;;;;;27.63;4.40;;;;;;;;;;4933636;28;93163;-66
2023/01/10 13:55:52;;;;;;;30.42;4.45;;;;;;;;;;4896780;28;93942;-69
2023/01/10 14:02:27;;;;;;;27.60;4.57;;;;;;;;;;4941285;28;91863;-67
2023/01/10 14:04:17;;;;;;;38.05;5.38;;;;;;;;;;4926818;28;92729;-67
2023/01/10 14:06:43;;;;;;;21.10;4.20;;;;;;;;;;4930280;28;95013;-67
2023/01/10 14:09:12;;;;;;;30.63;4.40;;;;;;;;;;4927013;28;94489;-67
2023/01/10 14:11:41;;;;;;;30.48;4.53;;;;;;;;;;4934366;28;92528;-67
2023/01/10 14:14:16;;;;;;;29.95;4.53;;;;;;;;;;4934824;28;93198;-67
2023/01/10 14:16:45;;;;;;;27.73;3.90;;;;;;;;;;4939082;28;95118;-67
2023/01/10 14:19:31;;;;;;;27.75;5.03;;;;;;;;;;4944872;28;92603;-67
2023/01/10 14:21:59;;;;;;;30.08;4.22;;;;;;;;;;4943129;28;93311;-67
2023/01/10 14:24:39;;;;;;;32.47;5.32;;;;;;;;;;4939846;28;93341;-67
2023/01/10 14:27:06;;;;;;;27.23;4.72;;;;;;;;;;4931335;28;93266;-67
2023/01/10 14:29:32;;;;;;;38.45;5.20;;;;;;;;;;4937609;28;93409;-67
2023/01/10 14:31:59;;;;;;;28.70;5.03;;;;;;;;;;4934936;28;95606;-67
2023/01/10 14:34:27;;;;;;;33.53;4.90;;;;;;;;;;4950469;28;97302;-67
2023/01/10 14:37:17;;;;;;;33.75;4.88;;;;;;;;;;4953850;28;93652;-67
2023/01/10 14:39:43;;;;;;;33.83;4.40;;;;;;;;;;4951209;28;92817;-67
2023/01/10 14:42:14;;;;;;;28.27;4.70;;;;;;;;;;4944204;28;93813;-67
2023/01/10 14:44:42;;;;;;;;;;;;;;;;;;4941412;28;94440;-67
2023/01/10 14:47:26;;;;;;;26.75;4.93;;;;;;;;;;4953909;28;123385;-67
2023/01/10 14:49:56;;;;;;;26.10;3.92;;;;;;;;;;4945340;28;92715;-67
2023/01/10 14:52:23;;;;;;;33.88;5.68;;;;;;;;;;4941684;28;92529;-67
2023/01/10 14:55:08;;;;;;;34.35;5.10;;;;;;;;;;4944722;28;92469;-67
2023/01/10 14:57:34;;;;;;;24.23;5.57;;;;;;;;;;4954503;28;95853;-67
2023/01/10 15:00:03;;;;;;;43.47;4.97;;;;;;;;;;4946904;28;93347;-67
2023/01/10 15:02:30;;;;;;;35.55;5.45;;;;;;;;;;4939643;28;93189;-67